Time;durP1;ratioP1;P1;durP2;ratioP2;P2;SDS_P1;SDS_P2;PMS_P1;PMS_P2;Temp;Humidity;BMP_temperature;BMP_pressure;BME280_temperature;BME280_humidity;BME280_pressure;Samples;Min_cycle;Max_cycle;Signal;HPM_P1;HPM_P2
2022/09/19 06:06:44;;;;;;;28.33;13.93;;;;;;;39.08;39.13;101073.69;6122424;23;20464;-78
2022/09/19 06:09:10;;;;;;;27.60;11.70;;;;;;;38.91;39.22;101066.22;6099849;23;20928;-75
2022/09/19 06:11:37;;;;;;;23.30;12.10;;;;;;;38.82;39.71;101070.81;6098271;23;20390;-76
2022/09/19 06:14:15;;;;;;;26.73;12.03;;;;;;;38.05;40.65;101064.28;6125292;23;20375;-76
2022/09/19 06:16:44;;;;;;;29.63;12.83;;;;;;;38.09;40.57;101075.31;6100209;23;20408;-77
2022/09/19 06:19:10;;;;;;;29.97;13.97;;;;;;;38.55;40.28;101077.91;6100243;23;20861;-76
2022/09/19 06:21:36;;;;;;;30.53;13.47;;;;;;;38.55;40.21;101094.16;6099840;23;20444;-78
2022/09/19 06:24:02;;;;;;;18.30;10.03;;;;;;;37.55;42.11;101084.97;6099757;23;20390;-82
2022/09/19 06:26:29;;;;;;;25.67;13.37;;;;;;;37.84;41.63;101077.44;6100410;23;20422;-76
2022/09/19 06:28:55;;;;;;;26.40;13.50;;;;;;;38.63;40.23;101082.56;6100816;23;20730;-73
2022/09/19 06:31:21;;;;;;;33.33;13.43;;;;;;;39.43;38.96;101086.41;6099886;23;20382;-74
2022/09/19 06:33:47;;;;;;;38.57;14.63;;;;;;;39.31;38.81;101104.38;6099951;23;20386;-74
2022/09/19 06:36:13;;;;;;;32.60;14.90;;;;;;;38.55;39.75;101080.59;6099991;23;20480;-74
2022/09/19 06:38:40;;;;;;;49.57;13.90;;;;;;;38.25;40.30;101089.34;6126108;23;20401;-73
2022/09/19 06:41:09;;;;;;;27.73;12.50;;;;;;;38.52;39.59;101085.81;6099715;23;20500;-74
2022/09/19 06:43:36;;;;;;;25.53;11.00;;;;;;;38.86;39.30;101082.66;6099172;23;20756;-73
2022/09/19 06:46:02;;;;;;;38.03;14.67;;;;;;;38.89;39.31;101088.25;6096835;23;20418;-75
2022/09/19 06:48:28;;;;;;;25.70;14.53;;;;;;;38.74;39.44;101093.22;6095711;23;20456;-76
2022/09/19 06:50:54;;;;;;;32.37;12.53;;;;;;;38.56;39.83;101090.34;6095551;23;20381;-74
2022/09/19 06:53:20;;;;;;;29.77;11.43;;;;;;;38.75;39.50;101094.84;6097304;23;20451;-73
2022/09/19 06:55:46;;;;;;;19.17;12.10;;;;;;;39.32;38.53;101090.47;6098165;23;20390;-73
2022/09/19 06:58:13;;;;;;;39.90;13.47;;;;;;;38.69;39.74;101099.53;6098166;23;20774;-73
2022/09/19 07:00:40;;;;;;;26.63;13.67;;;;;;;39.03;38.82;101101.75;6098178;23;20924;-74
2022/09/19 07:03:09;;;;;;;28.57;11.43;;;;;;;39.11;38.56;101103.72;6099548;23;20378;-74
2022/09/19 07:05:37;;;;;;;29.23;13.10;;;;;;;38.52;39.60;101108.31;6105606;23;20457;-74
2022/09/19 07:08:04;;;;;;;36.87;15.07;;;;;;;38.72;39.19;101122.53;6124635;23;20374;-73
2022/09/19 07:10:30;;;;;;;28.83;11.80;;;;;;;38.11;40.16;101121.84;6122671;23;20872;-74
2022/09/19 07:13:01;;;;;;;26.73;13.23;;;;;;;37.99;40.40;101121.56;6123080;23;20386;-73
2022/09/19 07:15:31;;;;;;;27.87;13.10;;;;;;;37.89;40.80;101130.69;6123939;23;20417;-76
2022/09/19 07:17:57;;;;;;;22.80;11.53;;;;;;;37.70;41.40;101124.53;6125880;23;20351;-75
2022/09/19 07:20:25;;;;;;;34.67;11.43;;;;;;;38.09;40.19;101133.00;6123436;23;20370;-75
2022/09/19 07:23:14;;;;;;;37.07;14.60;;;;;;;38.02;40.78;101146.16;6121738;23;20688;-76
2022/09/19 07:25:42;;;;;;;23.33;8.40;;;;;;;38.29;39.77;101141.84;6121834;23;20409;-76
2022/09/19 07:28:13;;;;;;;18.23;8.07;;;;;;;38.35;39.51;101152.28;6122423;23;20465;-77
2022/09/19 07:30:43;;;;;;;39.57;10.07;;;;;;;38.52;39.53;101151.66;6126034;23;20354;-74
2022/09/19 07:33:11;;;;;;;35.77;12.00;;;;;;;37.81;40.81;101158.44;6125631;23;20413;-74
2022/09/19 07:35:41;;;;;;;22.33;10.03;;;;;;;37.94;40.35;101170.38;6123982;23;20381;-73
2022/09/19 07:38:11;;;;;;;30.23;9.37;;;;;;;38.06;40.39;101170.72;6124089;23;20971;-74
2022/09/19 07:40:38;;;;;;;23.60;7.97;;;;;;;37.59;41.52;101162.59;6123891;23;20846;-74
2022/09/19 07:43:05;;;;;;;25.80;9.67;;;;;;;37.62;41.10;101174.72;6123912;23;20378;-74
2022/09/19 07:45:36;;;;;;;37.87;15.03;;;;;;;36.64;43.31;101169.06;6123680;23;20384;-74
2022/09/19 07:48:03;;;;;;;36.23;14.80;;;;;;;37.55;42.23;101166.97;6124674;23;20392;-75
2022/09/19 07:50:31;;;;;;;19.97;10.93;;;;;;;36.90;42.61;101163.38;6123375;23;20604;-73
2022/09/19 07:53:02;;;;;;;34.60;13.30;;;;;;;37.68;41.28;101172.72;6125458;23;20457;-74
2022/09/19 07:55:29;;;;;;;29.20;10.37;;;;;;;38.05;40.72;101183.44;6125240;23;20445;-73
2022/09/19 07:57:58;;;;;;;27.10;9.63;;;;;;;38.22;40.24;101184.78;6123979;23;20857;-73
2022/09/19 08:00:25;;;;;;;23.00;12.67;;;;;;;37.52;41.26;101181.09;6125556;23;20410;-74
2022/09/19 08:03:00;;;;;;;25.60;12.10;;;;;;;36.61;42.95;101191.28;6125860;23;20385;-73
2022/09/19 08:05:28;;;;;;;49.33;14.13;;;;;;;36.98;43.25;101181.63;6125405;23;20440;-72
2022/09/19 08:07:57;;;;;;;45.47;13.27;;;;;;;37.58;42.16;101182.63;6125689;23;20761;-73
2022/09/19 08:10:23;;;;;;;43.80;14.00;;;;;;;37.15;42.32;101200.06;6125716;23;20838;-74
2022/09/19 08:12:49;;;;;;;44.60;15.90;;;;;;;36.90;43.14;101206.63;6127614;23;20702;-74
2022/09/19 08:15:18;;;;;;;45.70;16.67;;;;;;;36.34;44.25;101202.63;6125736;23;20893;-73
2022/09/19 08:18:18;;;;;;;70.03;20.50;;;;;;;36.19;44.81;101200.88;6125787;23;20782;-73
2022/09/19 08:20:45;;;;;;;54.63;19.80;;;;;;;35.92;45.19;101208.72;6120491;23;20507;-73
2022/09/19 08:23:13;;;;;;;42.90;18.37;;;;;;;35.55;46.18;101209.28;6125625;23;20420;-73
2022/09/19 08:25:42;;;;;;;51.23;21.63;;;;;;;36.90;43.48;101203.94;6125783;23;20839;-73
2022/09/19 08:28:10;;;;;;;61.17;23.70;;;;;;;37.17;42.65;101208.69;6125586;23;20851;-73
2022/09/19 08:30:36;;;;;;;61.37;19.93;;;;;;;36.99;43.10;101210.28;6125782;23;20382;-75
2022/09/19 08:33:03;;;;;;;67.70;22.57;;;;;;;37.28;42.95;101207.44;6127550;23;20354;-75
2022/09/19 08:35:33;;;;;;;85.37;28.43;;;;;;;36.85;43.27;101210.97;6125601;23;20465;-75
2022/09/19 08:38:00;;;;;;;76.90;29.00;;;;;;;36.94;42.81;101199.53;6125549;23;20382;-75
2022/09/19 08:40:52;;;;;;;67.80;23.50;;;;;;;36.94;42.68;101219.25;6127387;23;20358;-75
2022/09/19 08:43:47;;;;;;;81.33;28.63;;;;;;;36.97;43.27;101220.59;6125466;23;20378;-75
2022/09/19 08:46:15;;;;;;;91.63;25.80;;;;;;;37.58;41.92;101227.84;6123820;23;20409;-73
2022/09/19 08:48:49;;;;;;;107.33;25.90;;;;;;;37.79;41.37;101236.44;6125475;23;20385;-74
2022/09/19 08:51:54;;;;;;;58.80;20.70;;;;;;;38.11;40.79;101239.13;6125507;23;20436;-74
2022/09/19 08:54:30;;;;;;;42.53;17.27;;;;;;;38.03;40.79;101244.44;6125117;23;20377;-74
2022/09/19 08:56:59;;;;;;;49.53;16.80;;;;;;;38.38;40.48;101230.28;6125463;23;20448;-74
2022/09/19 08:59:32;;;;;;;33.30;14.17;;;;;;;38.07;40.91;101240.06;6125234;23;20380;-74
2022/09/19 09:02:07;;;;;;;40.87;15.30;;;;;;;37.59;42.00;101240.28;6125234;23;20484;-74
2022/09/19 09:04:35;;;;;;;51.60;17.30;;;;;;;37.69;42.21;101250.97;6127305;23;20362;-74
2022/09/19 09:07:16;;;;;;;25.40;10.97;;;;;;;36.48;44.10;101237.91;6126495;23;20445;-74
2022/09/19 09:10:02;;;;;;;23.43;9.27;;;;;;;36.80;43.65;101245.38;6100914;23;20405;-74
2022/09/19 09:13:01;;;;;;;27.93;11.77;;;;;;;36.67;44.14;101244.16;6090938;23;20398;-74
2022/09/19 09:15:50;;;;;;;31.53;11.00;;;;;;;36.49;44.60;101237.63;6127140;23;20414;-74
2022/09/19 09:18:31;;;;;;;41.80;15.30;;;;;;;36.59;44.25;101242.91;6100922;23;20914;-74
2022/09/19 09:20:57;;;;;;;52.70;11.83;;;;;;;36.84;44.02;101241.81;6127186;23;20401;-74
2022/09/19 09:23:27;;;;;;;36.43;15.10;;;;;;;37.33;42.66;101253.38;6101114;23;20396;-74
2022/09/19 09:26:00;;;;;;;31.37;13.60;;;;;;;37.12;42.86;101242.00;6100731;23;20394;-74
2022/09/19 09:28:26;;;;;;;49.90;12.53;;;;;;;36.73;43.90;101234.09;6101069;23;20824;-73
2022/09/19 09:31:07;;;;;;;37.47;13.67;;;;;;;36.97;43.09;101232.22;6100712;23;20386;-74
2022/09/19 09:33:37;;;;;;;35.33;14.27;;;;;;;37.17;43.11;101235.72;6100671;23;20781;-73
2022/09/19 09:36:10;;;;;;;23.80;10.40;;;;;;;36.95;43.56;101241.69;6127044;23;20362;-74
2022/09/19 09:38:45;;;;;;;24.33;11.43;;;;;;;36.81;43.45;101247.78;6100654;23;20414;-76
2022/09/19 09:44:13;;;;;;;36.93;15.97;;;;;;;37.18;43.27;101238.13;6126571;23;20350;-75
2022/09/19 09:47:18;;;;;;;33.67;12.53;;;;;;;37.37;43.19;101235.44;6100416;23;20460;-75
2022/09/19 09:49:44;;;;;;;35.53;14.00;;;;;;;37.34;42.82;101233.34;6126713;23;20806;-76
2022/09/19 09:52:41;;;;;;;32.43;11.93;;;;;;;37.05;43.27;101236.16;6100570;23;20456;-75
2022/09/19 09:58:31;;;;;;;43.63;11.73;;;;;;;37.43;41.92;101223.47;6126461;23;20382;-73
2022/09/19 10:04:30;;;;;;;30.10;10.40;;;;;;;37.49;41.72;101246.63;6126553;23;20354;-75
2022/09/19 10:07:00;;;;;;;26.23;12.70;;;;;;;37.74;41.08;101225.69;6123185;23;20441;-74
2022/09/19 10:09:33;;;;;;;32.97;11.40;;;;;;;37.42;41.71;101235.38;6124853;23;20432;-75
2022/09/19 10:12:07;;;;;;;29.70;12.87;;;;;;;37.81;40.67;101226.13;6124638;23;20370;-74
2022/09/19 10:14:38;;;;;;;35.67;13.77;;;;;;;37.93;40.74;101226.47;6124675;23;20405;-75
2022/09/19 10:17:06;;;;;;;30.57;13.27;;;;;;;38.05;40.56;101224.06;6124705;23;20413;-74
2022/09/19 10:19:39;;;;;;;34.07;14.50;;;;;;;37.62;41.39;101218.03;6124632;23;20473;-75
2022/09/19 10:22:14;;;;;;;45.63;12.63;;;;;;;38.09;40.79;101216.16;6124251;23;20814;-74
2022/09/19 10:24:53;;;;;;;35.57;16.40;;;;;;;38.47;40.06;101208.69;6124638;23;20952;-82
2022/09/19 10:27:38;;;;;;;51.30;14.50;;;;;;;38.12;40.41;101208.25;6124546;23;20502;-74
2022/09/19 10:30:10;;;;;;;40.93;15.20;;;;;;;38.04;40.69;101213.56;6124721;23;20382;-75
2022/09/19 10:32:37;;;;;;;45.30;14.03;;;;;;;37.97;40.84;101205.81;6124538;23;20458;-74
2022/09/19 10:35:34;;;;;;;32.77;11.80;;;;;;;37.38;41.83;101210.84;6124622;23;20385;-76
2022/09/19 10:38:04;;;;;;;39.07;12.20;;;;;;;37.63;41.54;101198.00;6100130;23;20378;-78
2022/09/19 10:40:32;;;;;;;49.80;14.20;;;;;;;37.37;41.79;101208.41;6124336;23;20866;-77
2022/09/19 10:43:02;;;;;;;49.43;15.83;;;;;;;37.23;42.52;101204.81;6124332;23;20406;-78
2022/09/19 10:45:33;;;;;;;42.20;16.80;;;;;;;37.23;42.40;101204.81;6124319;23;20445;-76
2022/09/19 10:48:08;;;;;;;60.83;16.47;;;;;;;37.06;42.83;101189.88;6124409;23;20386;-77
2022/09/19 10:50:40;;;;;;;54.87;13.80;;;;;;;37.45;41.52;101177.19;6124401;23;20426;-77
2022/09/19 10:53:07;;;;;;;38.20;8.47;;;;;;;37.81;40.65;101183.63;6077240;23;20876;-75
2022/09/19 10:55:38;;;;;;;42.37;11.20;;;;;;;37.16;41.48;101182.72;6099968;23;20861;-74
2022/09/19 10:58:18;;;;;;;33.63;11.60;;;;;;;37.37;41.29;101187.56;6124294;23;20383;-74
2022/09/19 11:00:55;;;;;;;34.90;10.17;;;;;;;37.23;41.91;101194.78;6126089;23;20358;-73
2022/09/19 11:03:29;;;;;;;27.90;9.37;;;;;;;37.33;41.66;101183.81;6100319;23;20393;-73
2022/09/19 11:06:10;;;;;;;25.63;7.73;;;;;;;37.62;41.25;101175.50;6099572;23;20786;-73
2022/09/19 11:08:44;;;;;;;36.17;10.37;;;;;;;37.78;41.38;101172.56;6124368;23;20847;-73
2022/09/19 11:11:37;;;;;;;30.60;12.00;;;;;;;37.70;41.48;101171.34;6124190;23;20400;-74
2022/09/19 11:14:32;;;;;;;22.13;10.90;;;;;;;37.41;41.90;101165.34;6124068;23;20937;-73
2022/09/19 11:17:17;;;;;;;50.07;14.67;;;;;;;37.38;42.52;101167.53;6126128;23;20354;-72
2022/09/19 11:20:08;;;;;;;25.10;8.40;;;;;;;37.33;42.35;101154.06;6124359;23;20382;-74
2022/09/19 11:22:53;;;;;;;29.53;12.37;;;;;;;36.93;43.86;101151.94;6103280;23;20515;-73
2022/09/19 11:25:22;;;;;;;47.07;12.50;;;;;;;37.38;42.25;101143.19;6124032;23;20855;-73
2022/09/19 11:28:05;;;;;;;38.50;12.87;;;;;;;36.50;43.74;101146.53;6124041;23;20408;-74
2022/09/19 11:31:12;;;;;;;24.10;10.63;;;;;;;36.67;43.35;101146.06;6123965;23;20389;-74
2022/09/19 11:33:38;;;;;;;30.30;10.20;;;;;;;36.66;43.55;101141.75;6106894;23;20381;-75
2022/09/19 11:36:29;;;;;;;25.13;10.37;;;;;;;36.33;44.36;101149.69;6124121;23;20421;-76
2022/09/19 11:39:03;;;;;;;40.27;12.30;;;;;;;35.84;45.55;101152.59;6123944;23;20858;-76
2022/09/19 11:42:04;;;;;;;54.20;16.40;;;;;;;36.48;44.64;101136.03;6100952;23;20425;-76
2022/09/19 11:44:43;;;;;;;46.17;16.90;;;;;;;36.99;43.38;101124.53;6107965;23;20389;-76
2022/09/19 11:47:31;;;;;;;46.70;16.80;;;;;;;37.15;43.46;101122.41;6125909;23;20409;-78
2022/09/19 11:50:10;;;;;;;37.90;15.83;;;;;;;37.29;43.06;101122.47;6126169;23;20362;-78
2022/09/19 11:53:01;;;;;;;39.60;16.90;;;;;;;36.81;44.00;101126.13;6123789;23;20389;-78
2022/09/19 11:55:45;;;;;;;37.53;13.20;;;;;;;37.47;42.80;101115.44;6124043;23;20409;-77
2022/09/19 11:58:29;;;;;;;24.30;13.03;;;;;;;37.52;42.11;101102.63;6123947;23;20405;-77
2022/09/19 12:01:16;;;;;;;23.73;11.30;;;;;;;36.96;43.57;101102.72;6123683;23;20782;-77
2022/09/19 12:04:09;;;;;;;27.10;13.00;;;;;;;37.29;42.76;101106.25;6123774;23;20843;-77
2022/09/19 12:06:35;;;;;;;30.10;12.53;;;;;;;36.94;43.64;101094.88;6123474;23;20524;-76
2022/09/19 12:09:17;;;;;;;23.80;10.03;;;;;;;37.16;43.56;101088.06;6123987;23;20460;-77
2022/09/19 12:11:58;;;;;;;35.97;16.47;;;;;;;37.49;42.92;101073.44;6125786;23;20350;-76
2022/09/19 12:14:46;;;;;;;35.13;11.70;;;;;;;37.01;43.20;101072.88;6123610;23;20472;-76
2022/09/19 12:17:42;;;;;;;39.90;14.73;;;;;;;36.58;43.83;101067.53;6123625;23;20874;-78
2022/09/19 12:20:25;;;;;;;44.70;14.70;;;;;;;36.53;44.23;101062.22;6125803;23;20368;-78
2022/09/19 12:22:55;;;;;;;45.10;17.13;;;;;;;36.87;43.65;101056.59;6123708;23;20468;-77
2022/09/19 12:25:25;;;;;;;45.03;16.67;;;;;;;36.99;43.06;101054.25;6123634;23;20454;-76
2022/09/19 12:28:00;;;;;;;24.17;12.53;;;;;;;36.46;44.10;101049.06;6125858;23;20354;-77
2022/09/19 12:30:33;;;;;;;47.30;14.30;;;;;;;36.83;43.68;101044.72;6123706;23;20393;-77
2022/09/19 12:33:06;;;;;;;36.53;15.40;;;;;;;37.08;43.28;101030.84;6125799;23;20355;-77
2022/09/19 12:36:07;;;;;;;28.67;14.00;;;;;;;36.51;44.22;101048.97;6099534;23;20385;-76
2022/09/19 12:38:59;;;;;;;27.77;12.63;;;;;;;37.03;42.65;101049.06;6123616;23;20377;-78
2022/09/19 12:42:00;;;;;;;32.77;12.47;;;;;;;36.76;43.00;101042.38;6125637;23;20406;-78
2022/09/19 12:44:36;;;;;;;36.43;13.63;;;;;;;37.49;42.20;101038.25;6123649;23;20525;-77
2022/09/19 12:47:21;;;;;;;29.13;14.30;;;;;;;37.28;42.46;101045.91;6125491;23;20424;-77
2022/09/19 12:50:15;;;;;;;24.87;12.83;;;;;;;37.72;41.61;101041.09;6127222;23;20480;-76
2022/09/19 12:53:05;;;;;;;30.77;14.20;;;;;;;37.34;42.10;101025.03;6125416;23;20373;-76
2022/09/19 12:55:55;;;;;;;43.00;12.57;;;;;;;37.02;43.11;101012.28;6047544;23;20386;-77
2022/09/19 12:58:33;;;;;;;28.13;11.63;;;;;;;37.14;42.81;101012.63;6125407;23;20480;-77
2022/09/19 13:01:17;;;;;;;23.03;11.80;;;;;;;36.96;42.75;101002.66;6127299;23;20440;-77
2022/09/19 13:04:21;;;;;;;32.07;14.07;;;;;;;37.23;42.30;101002.72;6103784;23;20850;-78
2022/09/19 13:06:51;;;;;;;30.17;12.93;;;;;;;37.50;41.65;100984.94;6124887;23;20441;-77
2022/09/19 13:09:34;;;;;;;31.63;13.03;;;;;;;37.40;41.96;100980.53;6127256;23;20358;-77
2022/09/19 13:12:13;;;;;;;30.47;14.07;;;;;;;37.18;42.52;100988.47;6127214;23;20359;-76
2022/09/19 13:14:54;;;;;;;28.80;14.40;;;;;;;37.34;42.57;100979.03;6125288;23;20440;-76
2022/09/19 13:26:17;;;;;;;30.60;12.77;;;;;;;37.81;41.17;100956.19;6126711;23;20353;-77
2022/09/19 13:28:46;;;;;;;26.63;14.30;;;;;;;37.81;41.20;100953.50;6125157;23;20804;-76
2022/09/19 13:31:15;;;;;;;35.00;12.03;;;;;;;37.45;42.03;100947.97;6127128;23;20374;-78
2022/09/19 13:33:53;;;;;;;25.30;11.77;;;;;;;37.15;42.05;100948.53;6127083;23;20373;-78
2022/09/19 13:36:22;;;;;;;41.53;11.50;;;;;;;38.33;40.24;100936.94;6125115;23;20413;-78
2022/09/19 13:38:55;;;;;;;21.50;11.83;;;;;;;38.08;40.30;100943.69;6125134;23;20386;-78
2022/09/19 13:41:41;;;;;;;36.87;14.07;;;;;;;38.07;40.29;100929.38;6124962;23;20508;-77
2022/09/19 13:44:15;;;;;;;24.13;12.57;;;;;;;37.81;40.52;100925.59;6125102;23;20385;-78
2022/09/19 13:47:07;;;;;;;26.80;15.10;;;;;;;38.11;40.13;100921.41;6126674;23;20531;-77
2022/09/19 13:49:51;;;;;;;27.60;11.80;;;;;;;38.04;40.33;100916.41;6127016;23;20353;-77
2022/09/19 13:52:29;;;;;;;26.37;12.93;;;;;;;37.94;40.83;100911.25;6124937;23;20457;-77
2022/09/19 13:55:18;;;;;;;32.30;14.40;;;;;;;37.80;41.35;100907.72;6124773;23;20402;-78
2022/09/19 13:57:46;;;;;;;45.73;14.13;;;;;;;37.83;41.51;100912.56;6124641;23;20409;-77
2022/09/19 14:00:37;;;;;;;33.97;14.83;;;;;;;38.18;40.89;100917.19;6124841;23;20406;-77
2022/09/19 14:03:06;;;;;;;34.00;13.03;;;;;;;38.46;40.43;100903.53;6124810;23;20378;-78
2022/09/19 14:05:40;;;;;;;29.93;12.43;;;;;;;38.39;39.65;100890.44;6124463;23;20465;-78
2022/09/19 14:08:29;;;;;;;24.90;12.27;;;;;;;38.53;39.06;100895.78;6124724;23;20465;-78
2022/09/19 14:10:56;;;;;;;24.07;10.20;;;;;;;38.40;39.65;100907.50;6124860;23;20410;-78
2022/09/19 14:13:26;;;;;;;19.83;10.70;;;;;;;38.55;39.14;100909.00;6124616;23;20827;-78
2022/09/19 14:16:10;;;;;;;27.70;10.40;;;;;;;38.38;39.59;100904.28;6124713;23;20828;-78
2022/09/19 14:18:36;;;;;;;21.37;10.20;;;;;;;38.47;38.55;100902.44;6124715;23;20382;-77
2022/09/19 14:21:34;;;;;;;30.73;11.20;;;;;;;38.82;37.76;100897.25;6124578;23;20505;-77
2022/09/19 14:24:37;;;;;;;22.83;13.03;;;;;;;38.55;38.54;100892.75;6124900;23;20389;-76
2022/09/19 14:27:21;;;;;;;28.57;12.70;;;;;;;38.66;38.49;100884.03;6126790;23;20354;-78
2022/09/19 14:29:58;;;;;;;28.37;16.30;;;;;;;38.72;38.55;100881.25;6124472;23;20385;-78
2022/09/19 14:32:39;;;;;;;37.00;15.07;;;;;;;39.00;38.58;100876.44;6124450;23;20723;-78
2022/09/19 14:35:15;;;;;;;35.37;12.40;;;;;;;38.80;39.03;100881.28;6124560;23;20415;-78
2022/09/19 14:38:18;;;;;;;39.53;14.53;;;;;;;38.90;38.99;100877.50;6124366;23;20385;-78
2022/09/19 14:40:59;;;;;;;33.17;15.27;;;;;;;38.92;38.80;100872.59;6123924;23;20386;-78
2022/09/19 14:43:45;;;;;;;21.00;12.30;;;;;;;38.65;39.36;100882.44;6124330;23;20883;-78
2022/09/19 14:46:18;;;;;;;23.20;11.00;;;;;;;38.95;38.94;100877.38;6126709;23;20357;-78
2022/09/19 14:49:08;;;;;;;30.13;13.40;;;;;;;38.70;39.43;100874.19;6124325;23;20396;-76
2022/09/19 14:52:04;;;;;;;22.60;10.03;;;;;;;37.96;40.17;100884.66;6124423;23;20374;-76
2022/09/19 14:54:43;;;;;;;43.63;12.63;;;;;;;38.43;39.75;100875.16;6103735;23;20998;-76
2022/09/19 14:57:20;;;;;;;28.30;11.70;;;;;;;37.97;40.22;100871.91;6100489;23;20386;-78
2022/09/19 14:59:48;;;;;;;41.73;15.10;;;;;;;38.11;40.11;100872.66;6126379;23;20393;-77
2022/09/19 15:02:22;;;;;;;26.13;12.03;;;;;;;38.37;39.51;100875.59;6125911;23;20433;-77
2022/09/19 15:04:51;;;;;;;34.83;13.23;;;;;;;38.18;40.04;100871.13;6124427;23;20401;-76
2022/09/19 15:07:25;;;;;;;21.93;11.13;;;;;;;37.77;40.80;100867.72;6099787;23;21187;-76
2022/09/19 15:09:51;;;;;;;22.63;13.03;;;;;;;38.00;40.86;100868.56;6125639;23;20401;-77
2022/09/19 15:12:27;;;;;;;38.23;12.03;;;;;;;37.55;41.04;100866.56;6099570;23;20401;-76
2022/09/19 15:14:58;;;;;;;29.43;11.70;;;;;;;37.37;41.29;100860.16;6099664;23;20392;-77
2022/09/19 15:17:26;;;;;;;26.43;13.40;;;;;;;37.35;41.72;100845.34;6099613;23;20410;-77
2022/09/19 15:20:14;;;;;;;26.43;12.00;;;;;;;37.80;40.33;100845.44;6126323;23;20439;-77
2022/09/19 15:22:44;;;;;;;26.90;15.20;;;;;;;37.95;39.80;100852.47;6099230;23;20454;-77
2022/09/19 15:25:27;;;;;;;24.13;12.63;;;;;;;37.78;40.47;100848.47;6099856;23;20933;-77
2022/09/19 15:28:02;;;;;;;34.53;13.73;;;;;;;38.27;39.72;100848.75;6099719;23;20390;-78
2022/09/19 15:30:34;;;;;;;33.27;12.70;;;;;;;37.84;40.24;100865.44;6099559;23;20385;-76
2022/09/19 15:33:13;;;;;;;29.77;12.87;;;;;;;38.30;39.25;100864.38;6099723;23;20390;-77
2022/09/19 15:35:43;;;;;;;32.33;12.80;;;;;;;38.78;38.18;100859.09;6099421;23;20417;-77
2022/09/19 15:38:35;;;;;;;27.03;12.17;;;;;;;38.25;39.30;100854.44;6099607;23;20493;-77
2022/09/19 15:41:05;;;;;;;25.83;13.20;;;;;;;38.85;38.40;100843.16;6099465;23;20437;-77
2022/09/19 15:43:35;;;;;;;37.43;13.50;;;;;;;38.16;39.24;100853.56;6099603;23;20476;-77
2022/09/19 15:59:02;;;;;;;36.50;12.70;;;;;;;36.40;45.99;100855.72;5164119;27;20330;-75
2022/09/19 16:01:34;;;;;;;34.50;13.40;;;;;;;37.58;42.73;100860.56;5149787;27;20529;-74
2022/09/19 16:04:12;;;;;;;24.77;14.27;;;;;;;37.54;42.42;100854.13;5148820;27;20414;-74
2022/09/19 16:09:38;;;;;;;24.63;11.67;;;;;;;37.89;40.80;100865.31;5143194;27;20536;-76
2022/09/19 16:12:38;;;;;;;31.90;12.97;;;;;;;38.34;39.84;100870.78;5128771;27;20433;-75
2022/09/19 16:15:14;;;;;;;38.07;13.43;;;;;;;38.14;40.14;100862.00;5129459;27;20534;-75
2022/09/19 16:17:53;;;;;;;28.27;13.00;;;;;;;38.00;39.79;100864.00;5127312;27;20893;-77
2022/09/19 16:20:31;;;;;;;23.70;11.83;;;;;;;38.09;39.87;100870.25;5150026;27;20429;-75
2022/09/19 16:23:04;;;;;;;37.57;14.17;;;;;;;38.59;39.08;100864.72;5131322;27;20415;-76
2022/09/19 16:25:44;;;;;;;31.60;13.27;;;;;;;38.06;39.81;100860.06;5124654;27;20418;-75
2022/09/19 16:28:17;;;;;;;24.83;9.53;;;;;;;37.92;40.09;100878.25;5125178;27;20962;-77
2022/09/19 16:31:24;;;;;;;27.90;11.20;;;;;;;38.09;39.32;100864.84;5118915;28;20439;-77
2022/09/19 16:34:03;;;;;;;31.17;12.77;;;;;;;38.69;38.36;100872.59;5084296;27;20459;-76
2022/09/19 16:36:29;;;;;;;24.43;13.10;;;;;;;38.60;38.52;100890.72;5127288;28;20415;-76
2022/09/19 16:39:01;;;;;;;22.20;12.97;;;;;;;38.69;38.44;100888.06;5111564;28;20455;-76
2022/09/19 16:41:41;;;;;;;35.30;11.97;;;;;;;38.35;39.16;100881.31;5125755;27;21010;-75
2022/09/19 16:44:17;;;;;;;28.37;11.90;;;;;;;38.42;39.11;100892.50;5120519;28;20423;-75
2022/09/19 16:46:44;;;;;;;21.83;11.57;;;;;;;38.25;39.12;100905.13;5113983;27;20419;-75
2022/09/19 16:49:10;;;;;;;43.13;18.73;;;;;;;38.13;39.52;100903.75;5120750;28;20419;-74
2022/09/19 16:51:36;;;;;;;29.93;11.70;;;;;;;38.15;39.09;100901.53;5110571;28;20423;-71
2022/09/19 16:54:11;;;;;;;33.77;14.53;;;;;;;38.35;39.32;100921.94;5111069;28;20448;-71
2022/09/19 16:56:40;;;;;;;23.70;11.53;;;;;;;38.12;39.77;100913.00;5108793;28;20844;-74
2022/09/19 16:59:12;;;;;;;37.90;13.50;;;;;;;38.25;39.65;100922.19;5101916;28;20462;-73
2022/09/19 17:01:39;;;;;;;34.87;12.13;;;;;;;38.63;38.96;100916.41;5118053;27;20482;-74
2022/09/19 17:04:06;;;;;;;28.57;13.20;;;;;;;38.38;38.76;100932.19;5115312;27;20513;-73
2022/09/19 17:06:32;;;;;;;25.63;12.70;;;;;;;37.79;39.61;100930.50;5117306;28;21034;-73
2022/09/19 17:08:58;;;;;;;30.37;15.30;;;;;;;38.30;38.82;100926.69;5123474;28;20442;-72
2022/09/19 17:11:24;;;;;;;27.83;13.37;;;;;;;37.93;39.27;100936.69;5097291;28;20798;-73
2022/09/19 17:13:50;;;;;;;21.93;10.27;;;;;;;37.74;39.43;100936.81;5097484;28;20849;-74
2022/09/19 17:16:18;;;;;;;51.40;14.10;;;;;;;38.30;38.77;100937.53;5121341;27;20439;-72
2022/09/19 17:18:45;;;;;;;22.13;9.97;;;;;;;37.85;39.33;100938.22;5097249;28;20836;-73
2022/09/19 17:21:13;;;;;;;29.00;14.83;;;;;;;37.76;39.91;100950.06;5115593;28;20787;-74
2022/09/19 17:23:39;;;;;;;49.07;17.20;;;;;;;38.55;38.21;100941.53;5100287;27;20522;-74
2022/09/19 17:26:06;;;;;;;42.90;16.57;;;;;;;38.55;38.70;100950.50;5100236;28;20435;-75
2022/09/19 17:28:35;;;;;;;28.83;12.40;;;;;;;39.07;37.83;100948.09;5097022;28;20457;-71
2022/09/19 17:31:01;;;;;;;21.57;10.77;;;;;;;38.54;38.48;100967.84;5097051;28;20485;-73
2022/09/19 17:33:29;;;;;;;23.07;12.53;;;;;;;38.68;38.19;100974.03;5097119;28;20435;-73
2022/09/19 17:36:01;;;;;;;26.27;11.53;;;;;;;38.08;39.10;100977.00;5090606;28;20554;-73
2022/09/19 17:38:29;;;;;;;27.70;13.07;;;;;;;38.18;39.38;100976.78;5096977;28;20486;-74
2022/09/19 17:40:55;;;;;;;24.23;12.83;;;;;;;38.69;38.35;100972.09;5096778;28;20955;-72
2022/09/19 17:43:22;;;;;;;23.47;12.13;;;;;;;38.64;38.44;100973.03;5096871;28;20522;-71
2022/09/19 17:45:59;;;;;;;25.07;12.63;;;;;;;38.38;38.95;100975.56;5110270;27;20574;-70
2022/09/19 17:48:26;;;;;;;29.87;13.20;;;;;;;38.97;38.21;100976.28;5114732;27;20507;-71
2022/09/19 17:50:52;;;;;;;39.33;14.50;;;;;;;38.63;38.76;100976.84;5114383;27;20452;-75
2022/09/19 17:53:19;;;;;;;53.23;14.40;;;;;;;38.57;38.83;100982.72;5114012;27;20420;-75
2022/09/19 17:55:45;;;;;;;27.97;13.90;;;;;;;38.84;38.14;100974.47;5108893;28;20514;-75
2022/09/19 17:58:11;;;;;;;36.90;14.77;;;;;;;38.62;38.61;100986.09;5095413;28;20501;-76
2022/09/19 18:00:38;;;;;;;28.67;14.43;;;;;;;38.48;38.92;100987.25;5097078;28;20455;-80
2022/09/19 18:03:19;;;;;;;28.40;12.73;;;;;;;38.33;38.75;100993.81;5094326;27;20428;-79
2022/09/19 18:05:59;;;;;;;34.73;14.67;;;;;;;38.40;39.52;100995.00;5083837;28;20534;-81
2022/09/19 18:08:26;;;;;;;33.83;14.90;;;;;;;38.53;39.03;100998.78;5080911;28;20429;-77
2022/09/19 18:10:58;;;;;;;30.23;13.80;;;;;;;38.60;38.74;100993.72;5089732;28;20456;-76
2022/09/19 18:13:24;;;;;;;21.53;11.87;;;;;;;38.18;39.52;101008.47;5090668;28;20424;-79
2022/09/19 18:15:52;;;;;;;20.60;11.40;;;;;;;38.22;39.56;101004.06;5096658;28;20969;-79
2022/09/19 18:18:19;;;;;;;22.87;12.27;;;;;;;38.28;38.79;101002.06;5095824;28;21007;-78
2022/09/19 18:21:03;;;;;;;21.83;11.00;;;;;;;38.23;39.12;101008.38;5095181;28;20961;-78
2022/09/19 18:23:31;;;;;;;23.70;13.70;;;;;;;37.92;39.60;101017.13;5088496;27;20511;-77
2022/09/19 18:26:02;;;;;;;47.13;14.27;;;;;;;38.47;38.77;101018.16;5108078;27;20415;-84